createdAt,value
2023-10-13T00:01:50.076Z,20.48
2023-10-13T00:04:16.871Z,20.54
2023-10-13T00:06:43.423Z,20.57
2023-10-13T00:09:09.864Z,20.62
2023-10-13T00:11:36.284Z,20.59
2023-10-13T00:14:02.820Z,20.62
2023-10-13T00:16:29.242Z,20.66
2023-10-13T00:18:56.120Z,20.64
2023-10-13T00:21:22.601Z,20.62
2023-10-13T00:23:49.118Z,20.65
2023-10-13T00:26:15.539Z,20.57
2023-10-13T00:28:41.964Z,20.57
2023-10-13T00:31:08.552Z,20.48
2023-10-13T00:33:35.030Z,20.44
2023-10-13T00:36:01.458Z,20.44
2023-10-13T00:38:28.016Z,20.41
2023-10-13T00:40:54.377Z,20.38
2023-10-13T00:43:22.940Z,20.35
2023-10-13T00:45:54.794Z,20.35
2023-10-13T00:48:33.209Z,20.35
2023-10-13T00:51:08.094Z,20.39
2023-10-13T00:53:37.092Z,20.32
2023-10-13T00:56:04.006Z,20.33
2023-10-13T00:58:30.637Z,20.30
2023-10-13T01:00:57.792Z,20.27
2023-10-13T01:03:24.835Z,20.24
2023-10-13T01:05:51.294Z,20.18
2023-10-13T01:08:17.683Z,20.15
2023-10-13T01:10:44.142Z,20.08
2023-10-13T01:13:10.620Z,20.12
2023-10-13T01:15:37.089Z,20.10
2023-10-13T01:18:11.024Z,20.04
2023-10-13T01:20:38.516Z,20.04
2023-10-13T01:23:09.109Z,19.99
2023-10-13T01:25:35.617Z,20.01
2023-10-13T01:28:02.002Z,19.99
2023-10-13T01:30:28.401Z,19.86
2023-10-13T01:32:54.980Z,19.88
2023-10-13T01:35:21.610Z,19.51
2023-10-13T01:37:48.080Z,19.69
2023-10-13T01:40:14.554Z,19.63
2023-10-13T01:42:40.994Z,19.41
2023-10-13T01:45:07.796Z,19.41
2023-10-13T01:47:34.567Z,19.58
2023-10-13T01:50:01.192Z,19.70
2023-10-13T01:52:27.742Z,19.65
2023-10-13T01:54:54.236Z,19.65
2023-10-13T01:57:20.683Z,19.71
2023-10-13T01:59:50.916Z,19.74
2023-10-13T02:02:17.975Z,19.71
2023-10-13T02:04:44.748Z,19.70
2023-10-13T02:07:11.410Z,19.74
2023-10-13T02:09:38.081Z,19.71
2023-10-13T02:12:04.950Z,19.70
2023-10-13T02:14:31.490Z,19.64
2023-10-13T02:16:58.370Z,19.71
2023-10-13T02:19:25.139Z,19.72
2023-10-13T02:21:51.770Z,19.75
2023-10-13T02:24:18.355Z,19.56
2023-10-13T02:26:48.184Z,19.38
2023-10-13T02:29:15.082Z,19.35
2023-10-13T02:31:44.750Z,19.45
2023-10-13T02:34:11.511Z,19.40
2023-10-13T02:36:39.926Z,19.44
2023-10-13T02:39:06.756Z,19.48
2023-10-13T02:41:33.157Z,19.34
2023-10-13T02:43:59.698Z,19.41
2023-10-13T02:46:26.226Z,19.56
2023-10-13T02:48:52.658Z,19.58
2023-10-13T02:51:19.066Z,19.53
2023-10-13T02:53:47.034Z,19.52
2023-10-13T02:56:14.085Z,19.52
2023-10-13T02:58:42.193Z,19.55
2023-10-13T03:01:09.935Z,19.56
2023-10-13T03:03:36.426Z,19.53
2023-10-13T03:06:02.899Z,19.50
2023-10-13T03:08:29.444Z,19.58
2023-10-13T03:10:56.052Z,19.51
2023-10-13T03:13:22.586Z,19.59
2023-10-13T03:15:49.083Z,19.57
2023-10-13T03:18:15.686Z,19.51
2023-10-13T03:20:42.233Z,19.63
2023-10-13T03:23:08.749Z,19.67
2023-10-13T03:25:35.222Z,19.61
2023-10-13T03:28:02.672Z,19.62
2023-10-13T03:30:29.580Z,19.61
2023-10-13T03:32:56.011Z,19.61
2023-10-13T03:35:22.850Z,19.52
2023-10-13T03:37:49.677Z,19.52
2023-10-13T03:40:16.671Z,19.42
2023-10-13T03:42:43.327Z,19.45
2023-10-13T03:45:10.376Z,19.48
2023-10-13T03:47:36.993Z,19.46
2023-10-13T03:50:04.138Z,19.44
2023-10-13T03:52:30.965Z,19.45
2023-10-13T03:54:57.936Z,19.48
2023-10-13T03:57:24.447Z,19.53
2023-10-13T03:59:50.964Z,19.55
2023-10-13T04:02:17.542Z,19.47
2023-10-13T04:04:44.339Z,19.43
2023-10-13T04:07:11.189Z,19.40
2023-10-13T04:09:38.970Z,19.42
2023-10-13T04:12:07.659Z,19.35
2023-10-13T04:14:36.457Z,19.40
2023-10-13T04:17:03.138Z,19.35
2023-10-13T04:19:30.007Z,19.27
2023-10-13T04:21:56.657Z,19.18
2023-10-13T04:24:23.404Z,19.19
2023-10-13T04:26:52.360Z,19.12
2023-10-13T04:29:19.298Z,19.13
2023-10-13T04:31:45.953Z,19.13
2023-10-13T04:34:12.583Z,19.05
2023-10-13T04:36:39.267Z,19.05
2023-10-13T04:39:05.985Z,19.08
2023-10-13T04:41:38.002Z,19.06
2023-10-13T04:44:05.580Z,19.03
2023-10-13T04:46:32.704Z,19.02
2023-10-13T04:48:59.375Z,18.99
2023-10-13T04:51:25.907Z,18.98
2023-10-13T04:53:52.655Z,18.96
2023-10-13T04:56:19.157Z,19.02
2023-10-13T04:58:45.586Z,19.00
2023-10-13T05:01:12.235Z,18.99
2023-10-13T05:03:38.749Z,18.98
2023-10-13T05:06:07.164Z,19.06
2023-10-13T05:08:33.542Z,19.06
2023-10-13T05:11:05.829Z,19.04
2023-10-13T05:13:32.452Z,19.03
2023-10-13T05:15:59.289Z,19.02
2023-10-13T05:18:25.866Z,19.04
2023-10-13T05:20:56.609Z,19.06
2023-10-13T05:23:23.163Z,19.11
2023-10-13T05:25:49.648Z,19.06
2023-10-13T05:28:22.817Z,18.95
2023-10-13T05:31:00.388Z,18.98
2023-10-13T05:33:26.994Z,19.05
2023-10-13T05:35:53.488Z,19.00
2023-10-13T05:38:20.050Z,18.94
2023-10-13T05:41:01.171Z,18.93
2023-10-13T05:43:27.741Z,18.96
2023-10-13T05:46:05.707Z,18.92
2023-10-13T05:48:32.816Z,18.92
2023-10-13T05:51:01.989Z,18.93
2023-10-13T05:53:28.438Z,18.96
2023-10-13T05:56:01.122Z,18.94
2023-10-13T05:58:28.195Z,18.97
2023-10-13T06:00:55.584Z,18.98
2023-10-13T06:03:28.569Z,18.98
2023-10-13T06:05:55.396Z,19.00
2023-10-13T06:08:21.916Z,19.06
2023-10-13T06:10:50.338Z,19.10
2023-10-13T06:13:17.086Z,19.10
2023-10-13T06:15:43.800Z,19.14
2023-10-13T06:18:12.602Z,19.14
2023-10-13T06:20:41.491Z,19.17
2023-10-13T06:23:08.233Z,19.13
2023-10-13T06:25:35.490Z,19.18
2023-10-13T06:28:02.320Z,19.17
2023-10-13T06:30:28.892Z,19.24
2023-10-13T06:32:55.319Z,19.21
2023-10-13T06:35:21.916Z,19.22
2023-10-13T06:37:48.624Z,19.24
2023-10-13T06:40:15.363Z,19.26
2023-10-13T06:42:41.967Z,19.36
2023-10-13T06:45:09.223Z,19.39
2023-10-13T06:47:37.298Z,19.48
2023-10-13T06:50:03.925Z,19.49
2023-10-13T06:52:31.105Z,19.54
2023-10-13T06:54:58.000Z,19.47
2023-10-13T06:57:24.802Z,19.52
2023-10-13T06:59:51.465Z,19.60
2023-10-13T07:02:27.580Z,19.65
2023-10-13T07:04:56.120Z,19.73
2023-10-13T07:07:22.951Z,19.80
2023-10-13T07:09:49.526Z,19.89
2023-10-13T07:12:16.387Z,19.98
2023-10-13T07:14:47.427Z,20.10
2023-10-13T07:17:14.053Z,20.21
2023-10-13T07:19:40.694Z,20.28
2023-10-13T07:22:07.282Z,20.32
2023-10-13T07:24:37.510Z,20.40
2023-10-13T07:27:04.394Z,20.48
2023-10-13T07:29:31.121Z,20.58
2023-10-13T07:31:57.798Z,20.71
2023-10-13T07:34:24.342Z,20.80
2023-10-13T07:36:55.641Z,20.94
2023-10-13T07:39:23.595Z,21.05
2023-10-13T07:41:51.824Z,21.06
2023-10-13T07:44:19.798Z,21.26
2023-10-13T07:46:46.983Z,21.36
2023-10-13T07:49:13.583Z,21.37
2023-10-13T07:51:40.100Z,21.57
2023-10-13T07:54:06.692Z,21.63
2023-10-13T07:56:33.344Z,21.79
2023-10-13T07:59:01.568Z,21.90
2023-10-13T08:01:29.686Z,21.84
2023-10-13T08:03:56.384Z,21.73
2023-10-13T08:06:23.123Z,21.89
2023-10-13T08:08:50.031Z,21.85
2023-10-13T08:11:18.382Z,22.06
2023-10-13T08:13:59.610Z,22.22
2023-10-13T08:16:31.206Z,22.24
2023-10-13T08:18:57.795Z,22.20
2023-10-13T08:21:24.539Z,22.40
2023-10-13T08:23:52.257Z,22.43
2023-10-13T08:26:18.913Z,22.15
2023-10-13T08:28:56.738Z,22.30
2023-10-13T08:31:24.787Z,22.23
2023-10-13T08:33:51.368Z,22.42
2023-10-13T08:36:17.884Z,22.56
2023-10-13T08:38:44.443Z,22.56
2023-10-13T08:41:11.222Z,22.66
2023-10-13T08:43:43.463Z,22.38
2023-10-13T08:46:10.928Z,22.49
2023-10-13T08:48:37.865Z,22.48
2023-10-13T08:51:06.560Z,22.80
2023-10-13T08:53:33.661Z,22.75
2023-10-13T08:56:00.215Z,22.82
2023-10-13T08:58:26.903Z,22.93
2023-10-13T09:00:55.522Z,22.94
2023-10-13T09:03:22.360Z,23.09
2023-10-13T09:05:49.106Z,22.83
2023-10-13T09:08:26.038Z,23.16
2023-10-13T09:10:52.691Z,23.15
2023-10-13T09:13:19.299Z,23.31
2023-10-13T09:15:46.033Z,23.10
2023-10-13T09:18:12.646Z,23.33
2023-10-13T09:20:40.038Z,23.12
2023-10-13T09:23:11.805Z,23.02
2023-10-13T09:25:40.019Z,23.16
2023-10-13T09:28:16.252Z,23.32
2023-10-13T09:30:51.129Z,23.46
2023-10-13T09:33:37.301Z,23.50
2023-10-13T09:36:04.900Z,23.50
2023-10-13T09:38:36.261Z,23.35
2023-10-13T09:41:06.112Z,23.58
2023-10-13T09:43:32.891Z,23.89
2023-10-13T09:46:01.179Z,23.97
2023-10-13T09:48:34.539Z,24.11
2023-10-13T09:51:03.919Z,24.10
2023-10-13T09:53:33.099Z,23.93
2023-10-13T09:56:13.674Z,24.22
2023-10-13T09:58:56.671Z,23.97
2023-10-13T10:01:29.517Z,24.16
2023-10-13T10:03:56.282Z,24.19
2023-10-13T10:06:24.360Z,24.01
2023-10-13T10:08:50.974Z,23.97
2023-10-13T10:11:35.914Z,24.05
2023-10-13T10:14:02.517Z,23.96
2023-10-13T10:16:38.029Z,23.70
2023-10-13T10:19:04.429Z,24.00
2023-10-13T10:21:37.698Z,23.91
2023-10-13T10:24:15.448Z,23.91
2023-10-13T10:26:52.951Z,23.96
2023-10-13T10:29:19.643Z,24.04
2023-10-13T10:31:48.083Z,24.01
2023-10-13T10:34:16.925Z,24.04
2023-10-13T10:36:47.096Z,24.22
2023-10-13T10:39:13.921Z,23.99
2023-10-13T10:41:40.288Z,23.95
2023-10-13T10:44:17.053Z,24.14
2023-10-13T10:46:44.603Z,24.15
2023-10-13T10:49:11.035Z,24.10
2023-10-13T10:51:46.434Z,23.74
2023-10-13T10:54:21.096Z,23.87
2023-10-13T10:56:48.169Z,23.57
2023-10-13T10:59:14.555Z,23.70
2023-10-13T11:01:45.579Z,23.75
2023-10-13T11:04:12.586Z,23.54
2023-10-13T11:06:47.752Z,23.68
2023-10-13T11:09:14.416Z,24.09
2023-10-13T11:11:40.979Z,24.14
2023-10-13T11:14:07.743Z,24.29
2023-10-13T11:16:34.243Z,24.34
2023-10-13T11:19:05.000Z,24.09
2023-10-13T11:21:31.791Z,23.92
2023-10-13T11:24:00.949Z,24.14
2023-10-13T11:26:35.041Z,24.15
2023-10-13T11:29:01.516Z,24.15
2023-10-13T11:31:28.009Z,24.32
2023-10-13T11:33:54.507Z,24.21
2023-10-13T11:36:20.892Z,24.42
2023-10-13T11:38:47.248Z,24.41
2023-10-13T11:41:13.668Z,24.53
2023-10-13T11:43:44.125Z,24.02
2023-10-13T11:46:18.439Z,23.77
2023-10-13T11:48:46.600Z,24.28
2023-10-13T11:51:15.077Z,23.95
2023-10-13T11:53:41.426Z,23.92
2023-10-13T11:56:09.889Z,23.61
2023-10-13T11:58:37.356Z,23.69
2023-10-13T12:01:04.043Z,24.12
2023-10-13T12:03:30.540Z,23.89
2023-10-13T12:05:59.577Z,24.21
2023-10-13T12:08:25.983Z,23.80
2023-10-13T12:10:52.453Z,23.93
2023-10-13T12:13:18.864Z,23.80
2023-10-13T12:15:45.435Z,23.90
2023-10-13T12:18:12.021Z,24.21
2023-10-13T12:20:38.598Z,24.59
2023-10-13T12:23:05.098Z,24.61
2023-10-13T12:25:33.014Z,24.90
2023-10-13T12:27:59.797Z,25.02
2023-10-13T12:30:26.736Z,25.05
2023-10-13T12:32:53.297Z,24.95
2023-10-13T12:35:19.900Z,25.10
2023-10-13T12:37:46.734Z,24.99
2023-10-13T12:40:15.407Z,25.27
2023-10-13T12:42:41.983Z,24.98
2023-10-13T12:45:08.597Z,25.32
2023-10-13T12:47:35.235Z,25.31
2023-10-13T12:50:02.253Z,25.61
2023-10-13T12:52:29.074Z,25.69
2023-10-13T12:54:55.856Z,26.00
2023-10-13T12:57:22.835Z,26.12
2023-10-13T12:59:50.314Z,26.15
2023-10-13T13:02:17.076Z,25.95
2023-10-13T13:04:43.704Z,25.89
2023-10-13T13:07:10.376Z,25.93
2023-10-13T13:09:36.747Z,26.21
2023-10-13T13:12:03.253Z,26.52
2023-10-13T13:14:29.618Z,26.39
2023-10-13T13:16:59.272Z,26.26
2023-10-13T13:19:25.841Z,26.33
2023-10-13T13:21:52.363Z,26.42
2023-10-13T13:24:18.832Z,26.43
2023-10-13T13:26:45.524Z,26.47
2023-10-13T13:29:11.973Z,26.60
2023-10-13T13:31:38.576Z,26.91
2023-10-13T13:34:04.970Z,27.23
2023-10-13T13:36:31.408Z,27.24
2023-10-13T13:38:57.814Z,27.54
2023-10-13T13:41:24.210Z,27.54
2023-10-13T13:43:51.559Z,27.85
2023-10-13T13:46:18.951Z,27.85
2023-10-13T13:48:46.337Z,28.16
2023-10-13T13:51:12.810Z,28.22
2023-10-13T13:53:39.336Z,28.43
2023-10-13T13:56:05.955Z,28.77
2023-10-13T13:58:32.540Z,28.96
2023-10-13T14:01:05.116Z,29.22
2023-10-13T14:03:31.859Z,28.96
2023-10-13T14:05:59.854Z,28.98
2023-10-13T14:08:27.414Z,28.55
2023-10-13T14:10:54.767Z,28.49
2023-10-13T14:13:21.204Z,28.50
2023-10-13T14:15:47.664Z,28.99
2023-10-13T14:18:16.536Z,29.22
2023-10-13T14:20:44.474Z,29.41
2023-10-13T14:23:10.947Z,29.54
2023-10-13T14:25:37.401Z,29.20
2023-10-13T14:28:06.937Z,29.35
2023-10-13T14:30:34.376Z,29.26
2023-10-13T14:33:00.994Z,29.02
2023-10-13T14:35:27.764Z,29.51
2023-10-13T14:37:54.542Z,29.13
2023-10-13T14:40:21.120Z,29.30
2023-10-13T14:42:47.844Z,29.05
2023-10-13T14:45:15.093Z,29.59
2023-10-13T14:47:42.442Z,29.82
2023-10-13T14:50:10.967Z,29.73
2023-10-13T14:52:37.512Z,29.84
2023-10-13T14:55:04.190Z,29.89
2023-10-13T14:57:30.704Z,29.75
2023-10-13T14:59:57.544Z,30.17
2023-10-13T15:02:24.432Z,30.42
2023-10-13T15:04:51.337Z,30.50
2023-10-13T15:07:18.381Z,31.04
2023-10-13T15:09:45.434Z,31.28
2023-10-13T15:12:14.673Z,31.65
2023-10-13T15:14:43.024Z,32.15
2023-10-13T15:17:12.362Z,32.44
2023-10-13T15:19:38.871Z,32.26
2023-10-13T15:22:06.072Z,32.44
2023-10-13T15:24:34.143Z,32.04
2023-10-13T15:27:00.802Z,32.11
2023-10-13T15:29:27.317Z,32.45
2023-10-13T15:31:56.734Z,32.84
2023-10-13T15:34:23.296Z,32.67
2023-10-13T15:36:50.181Z,32.97
2023-10-13T15:39:16.602Z,32.78
2023-10-13T15:41:43.380Z,33.07
2023-10-13T15:44:13.049Z,33.05
2023-10-13T15:49:15.026Z,33.14
2023-10-13T15:51:42.966Z,32.35
2023-10-13T15:54:09.499Z,31.81
2023-10-13T15:56:35.868Z,31.46
2023-10-13T15:59:02.738Z,31.08
2023-10-13T16:01:29.684Z,30.62
2023-10-13T16:03:56.275Z,30.26
2023-10-13T16:06:22.751Z,30.19
2023-10-13T16:08:49.117Z,29.73
2023-10-13T16:11:16.076Z,28.98
2023-10-13T16:13:46.661Z,28.40
2023-10-13T16:16:17.074Z,28.19
2023-10-13T16:18:47.012Z,27.79
2023-10-13T16:21:14.197Z,27.09
2023-10-13T16:23:41.012Z,26.58
2023-10-13T16:26:08.672Z,26.13
2023-10-13T16:28:39.199Z,26.02
2023-10-13T16:31:09.628Z,25.98
2023-10-13T16:33:36.543Z,25.66
2023-10-13T16:36:07.077Z,25.46
2023-10-13T16:38:33.910Z,25.18
2023-10-13T16:41:00.424Z,25.16
2023-10-13T16:43:27.024Z,25.23
2023-10-13T16:45:53.630Z,25.00
2023-10-13T16:48:20.273Z,24.80
2023-10-13T16:50:47.075Z,24.78
2023-10-13T16:53:13.631Z,24.75
2023-10-13T16:55:41.779Z,24.79
2023-10-13T16:58:12.277Z,24.62
2023-10-13T17:00:40.403Z,24.59
2023-10-13T17:03:07.237Z,24.42
2023-10-13T17:05:43.773Z,24.57
2023-10-13T17:08:10.751Z,24.31
2023-10-13T17:10:38.763Z,24.20
2023-10-13T17:13:06.687Z,24.19
2023-10-13T17:15:35.284Z,24.29
2023-10-13T17:18:03.117Z,24.12
2023-10-13T17:20:29.667Z,24.39
2023-10-13T17:22:56.405Z,23.93
2023-10-13T17:25:23.854Z,23.80
2023-10-13T17:27:50.475Z,23.74
2023-10-13T17:30:16.968Z,23.60
2023-10-13T17:32:43.612Z,23.95
2023-10-13T17:35:10.166Z,24.14
2023-10-13T17:37:36.851Z,24.12
2023-10-13T17:40:03.833Z,23.95
2023-10-13T17:42:31.166Z,23.89
2023-10-13T17:44:58.014Z,23.93
2023-10-13T17:47:25.002Z,24.04
2023-10-13T17:49:51.576Z,24.17
2023-10-13T17:52:18.358Z,23.94
2023-10-13T17:54:46.822Z,23.97
2023-10-13T17:57:17.846Z,23.61
2023-10-13T17:59:44.464Z,23.48
2023-10-13T18:02:12.029Z,23.39
2023-10-13T18:04:45.117Z,23.14
2023-10-13T18:07:11.806Z,23.02
2023-10-13T18:09:39.320Z,23.04
2023-10-13T18:12:08.482Z,22.80
2023-10-13T18:14:35.745Z,22.74
2023-10-13T18:19:32.584Z,22.66
2023-10-13T18:24:25.789Z,22.56
2023-10-13T18:26:52.485Z,22.47
2023-10-13T18:29:19.134Z,22.47
2023-10-13T18:31:45.713Z,22.37
2023-10-13T18:34:12.403Z,22.27
2023-10-13T18:36:39.028Z,22.18
2023-10-13T18:39:05.606Z,22.29
2023-10-13T18:41:32.442Z,22.25
2023-10-13T18:43:59.050Z,22.22
2023-10-13T18:46:25.751Z,22.21
2023-10-13T18:48:52.774Z,22.21
2023-10-13T18:51:22.047Z,22.22
2023-10-13T18:53:49.973Z,22.21
2023-10-13T18:56:22.609Z,22.19
2023-10-13T18:58:51.961Z,22.32
2023-10-13T19:01:19.672Z,22.37
2023-10-13T19:03:46.926Z,22.24
2023-10-13T19:06:13.416Z,22.24
2023-10-13T19:08:39.826Z,22.25
2023-10-13T19:11:07.775Z,22.09
2023-10-13T19:13:34.460Z,22.20
2023-10-13T19:16:04.856Z,22.14
2023-10-13T19:18:31.467Z,22.15
2023-10-13T19:20:58.036Z,22.23
2023-10-13T19:23:24.542Z,22.23
2023-10-13T19:25:51.074Z,22.37
2023-10-13T19:28:17.509Z,22.46
2023-10-13T19:30:44.000Z,22.40
2023-10-13T19:33:10.600Z,23.03
2023-10-13T19:35:40.587Z,22.68
2023-10-13T19:38:07.392Z,22.63
2023-10-13T19:40:34.975Z,22.62
2023-10-13T19:43:01.484Z,22.46
2023-10-13T19:45:27.895Z,22.90
2023-10-13T19:47:54.525Z,22.63
2023-10-13T19:50:22.984Z,22.63
2023-10-13T19:52:49.702Z,22.57
2023-10-13T19:55:16.272Z,22.96
2023-10-13T19:57:47.114Z,22.63
2023-10-13T20:00:14.460Z,22.76
2023-10-13T20:02:41.181Z,22.77
2023-10-13T20:05:08.318Z,22.94
2023-10-13T20:07:34.931Z,23.05
2023-10-13T20:10:01.521Z,22.81
2023-10-13T20:12:28.319Z,22.92
2023-10-13T20:14:55.297Z,23.25
2023-10-13T20:17:22.001Z,23.16
2023-10-13T20:19:49.457Z,23.43
2023-10-13T20:22:16.331Z,23.22
2023-10-13T20:24:43.164Z,23.80
2023-10-13T20:27:09.772Z,23.89
2023-10-13T20:29:36.347Z,23.74
2023-10-13T20:32:02.948Z,24.07
2023-10-13T20:34:29.519Z,23.79
2023-10-13T20:36:56.364Z,23.86
2023-10-13T20:39:23.047Z,23.86
2023-10-13T20:41:53.069Z,23.52
2023-10-13T20:44:26.953Z,23.60
2023-10-13T20:46:54.610Z,23.97
2023-10-13T20:49:21.443Z,24.14
2023-10-13T20:51:48.945Z,23.79
2023-10-13T20:54:15.389Z,23.74
2023-10-13T20:56:42.063Z,23.54
2023-10-13T20:59:08.464Z,23.41
2023-10-13T21:01:35.765Z,23.14
2023-10-13T21:04:02.451Z,22.91
2023-10-13T21:06:29.068Z,22.66
2023-10-13T21:08:55.584Z,23.04
2023-10-13T21:11:21.984Z,22.47
2023-10-13T21:13:50.305Z,22.69
2023-10-13T21:16:18.142Z,22.50
2023-10-13T21:18:44.878Z,22.59
2023-10-13T21:21:13.623Z,23.18
2023-10-13T21:23:42.433Z,23.50
2023-10-13T21:26:09.026Z,23.62
2023-10-13T21:28:35.448Z,23.84
2023-10-13T21:31:09.265Z,23.41
2023-10-13T21:33:36.089Z,23.10
2023-10-13T21:36:09.750Z,23.09
2023-10-13T21:41:05.969Z,22.85
2023-10-13T21:43:32.342Z,23.04
2023-10-13T21:46:05.249Z,23.17
2023-10-13T21:48:31.721Z,23.09
2023-10-13T21:50:58.305Z,23.20
2023-10-13T21:53:24.876Z,23.19
2023-10-13T21:55:51.569Z,23.39
2023-10-13T21:58:18.203Z,23.30
2023-10-13T22:00:44.818Z,23.21
2023-10-13T22:03:11.486Z,23.29
2023-10-13T22:05:40.411Z,23.22
2023-10-13T22:08:07.362Z,23.04
2023-10-13T22:10:34.130Z,23.37
2023-10-13T22:13:00.789Z,23.35
2023-10-13T22:15:27.367Z,23.52
2023-10-13T22:17:54.003Z,23.62
2023-10-13T22:20:21.186Z,23.63
2023-10-13T22:22:47.752Z,23.91
2023-10-13T22:25:14.297Z,23.95
2023-10-13T22:27:42.890Z,23.59
2023-10-13T22:30:12.831Z,23.53
2023-10-13T22:32:39.694Z,23.79
2023-10-13T22:35:07.357Z,23.24
2023-10-13T22:37:33.895Z,22.85
2023-10-13T22:40:00.845Z,22.96
2023-10-13T22:42:27.827Z,22.91
2023-10-13T22:44:54.327Z,22.97
2023-10-13T22:47:21.675Z,23.12
2023-10-13T22:49:48.198Z,22.94
2023-10-13T22:52:14.704Z,22.80
2023-10-13T22:54:41.283Z,23.07
2023-10-13T22:57:07.836Z,23.44
2023-10-13T22:59:34.567Z,23.52
2023-10-13T23:02:01.127Z,23.60
2023-10-13T23:04:28.522Z,23.71
2023-10-13T23:06:55.088Z,23.55
2023-10-13T23:09:21.792Z,23.28
2023-10-13T23:11:48.459Z,22.87
2023-10-13T23:14:15.001Z,23.11
2023-10-13T23:16:41.566Z,22.84
2023-10-13T23:19:08.369Z,22.88
2023-10-13T23:21:35.065Z,22.93
2023-10-13T23:24:01.583Z,22.73
2023-10-13T23:26:28.122Z,22.58
2023-10-13T23:28:55.091Z,22.31
2023-10-13T23:31:23.274Z,22.28
2023-10-13T23:33:49.859Z,22.42
2023-10-13T23:36:17.130Z,22.78
2023-10-13T23:38:45.139Z,22.40
2023-10-13T23:41:11.656Z,22.31
2023-10-13T23:43:39.019Z,22.18
2023-10-13T23:46:05.604Z,22.15
2023-10-13T23:48:32.968Z,22.20
2023-10-13T23:51:00.731Z,22.21
2023-10-13T23:53:32.370Z,22.30
2023-10-13T23:56:06.947Z,22.57
2023-10-13T23:58:33.604Z,22.39
